createdAt,value
2023-03-26T00:00:21.607Z,98873.44
2023-03-26T00:04:25.485Z,98871.44
2023-03-26T00:08:27.273Z,98874.75
2023-03-26T00:12:29.069Z,98878.47
2023-03-26T00:16:31.609Z,98890.88
2023-03-26T00:20:33.414Z,98898.19
2023-03-26T00:24:37.545Z,98901.41
2023-03-26T00:28:40.845Z,98909.94
2023-03-26T00:32:53.652Z,98906.66
2023-03-26T00:36:55.934Z,98901.16
2023-03-26T00:41:05.957Z,98904.03
2023-03-26T00:45:08.334Z,98912.84
2023-03-26T00:49:11.066Z,98901.44
2023-03-26T00:53:13.940Z,98905.69
2023-03-26T00:57:25.634Z,98883.19
2023-03-26T01:01:32.530Z,98891.53
2023-03-26T01:05:34.417Z,98890.88
2023-03-26T01:09:43.056Z,98897.53
2023-03-26T01:13:54.609Z,98873.25
2023-03-26T01:17:59.669Z,98875.34
2023-03-26T01:22:01.862Z,98873.41
2023-03-26T01:26:44.112Z,98878.81
2023-03-26T01:31:29.911Z,98886.47
2023-03-26T01:35:52.116Z,98893.63
2023-03-26T01:40:07.100Z,98901.16
2023-03-26T01:44:32.141Z,98903.09
2023-03-26T01:48:40.479Z,98904.06
2023-03-26T01:52:42.322Z,98899.16
2023-03-26T01:57:06.004Z,98883.19
2023-03-26T02:01:45.078Z,98888.56
2023-03-26T02:05:57.973Z,98890.84
2023-03-26T02:10:30.357Z,98884.00
2023-03-26T02:14:45.360Z,98885.13
2023-03-26T02:18:51.279Z,98885.59
2023-03-26T02:22:59.368Z,98887.03
2023-03-26T02:27:05.390Z,98900.22
2023-03-26T02:31:09.775Z,98892.91
2023-03-26T02:35:12.899Z,98902.84
2023-03-26T02:39:14.874Z,98899.06
2023-03-26T02:43:17.017Z,98903.63
2023-03-26T02:47:19.113Z,98898.13
2023-03-26T02:51:21.179Z,98901.72
2023-03-26T02:55:22.959Z,98899.06
2023-03-26T02:59:24.702Z,98904.47
2023-03-26T03:03:27.187Z,98894.53
2023-03-26T03:07:29.186Z,98887.56
2023-03-26T03:11:33.485Z,98903.19
2023-03-26T03:15:35.709Z,98897.47
2023-03-26T03:19:37.876Z,98896.69
2023-03-26T03:23:39.604Z,98909.22
2023-03-26T03:27:42.880Z,98897.47
2023-03-26T03:31:45.753Z,98900.09
2023-03-26T03:35:51.952Z,98908.56
2023-03-26T03:39:53.909Z,98899.44
2023-03-26T03:43:55.731Z,98895.81
2023-03-26T03:47:57.568Z,98901.31
2023-03-26T03:51:59.404Z,98909.53
2023-03-26T03:56:02.115Z,98903.84
2023-03-26T04:00:06.299Z,98890.44
2023-03-26T04:04:09.449Z,98884.28
2023-03-26T04:08:11.420Z,98899.97
2023-03-26T04:12:13.321Z,98891.19
2023-03-26T04:16:15.379Z,98893.97
2023-03-26T04:20:17.994Z,98897.38
2023-03-26T04:24:22.408Z,98891.78
2023-03-26T04:28:46.558Z,98886.06
2023-03-26T04:32:49.199Z,98879.22
2023-03-26T04:36:54.677Z,98866.38
2023-03-26T04:41:00.850Z,98873.91
2023-03-26T04:45:07.157Z,98877.94
2023-03-26T04:49:09.220Z,98880.72
2023-03-26T04:53:21.380Z,98866.22
2023-03-26T04:57:29.554Z,98866.72
2023-03-26T05:01:32.273Z,98862.97
2023-03-26T05:05:34.114Z,98869.19
2023-03-26T05:09:36.605Z,98873.75
2023-03-26T05:13:38.866Z,98859.44
2023-03-26T05:17:42.631Z,98859.75
2023-03-26T05:21:44.587Z,98870.81
2023-03-26T05:25:47.172Z,98872.09
2023-03-26T05:29:49.111Z,98872.59
2023-03-26T05:33:51.148Z,98869.16
2023-03-26T05:37:53.112Z,98869.84
2023-03-26T05:41:55.013Z,98878.59
2023-03-26T05:45:57.155Z,98890.97
2023-03-26T05:49:59.304Z,98882.19
2023-03-26T05:54:01.202Z,98889.03
2023-03-26T05:58:03.413Z,98890.84
2023-03-26T06:02:05.211Z,98885.16
2023-03-26T06:06:17.717Z,98886.78
2023-03-26T06:10:19.699Z,98880.59
2023-03-26T06:14:21.681Z,98887.44
2023-03-26T06:18:24.259Z,98874.72
2023-03-26T06:22:26.475Z,98886.94
2023-03-26T06:26:28.381Z,98876.97
2023-03-26T06:30:30.471Z,98872.41
2023-03-26T06:34:33.046Z,98873.19
2023-03-26T06:38:35.010Z,98882.25
2023-03-26T06:43:10.162Z,98877.66
2023-03-26T06:46:58.869Z,98867.81
2023-03-26T06:51:03.405Z,98868.16
2023-03-26T06:55:08.724Z,98870.91
2023-03-26T06:59:10.529Z,98867.09
2023-03-26T07:03:12.516Z,98866.66
2023-03-26T07:07:14.452Z,98866.59
2023-03-26T07:11:17.120Z,98871.97
2023-03-26T07:15:22.560Z,98866.97
2023-03-26T07:19:24.868Z,98867.00
2023-03-26T07:23:27.395Z,98866.94
2023-03-26T07:28:12.389Z,98873.25
2023-03-26T07:32:19.363Z,98861.81
2023-03-26T07:36:34.326Z,98848.31
2023-03-26T07:41:23.052Z,98860.78
2023-03-26T07:45:44.047Z,98868.94
2023-03-26T07:49:46.516Z,98859.75
2023-03-26T07:53:49.776Z,98856.53
2023-03-26T07:58:36.590Z,98861.69
2023-03-26T08:03:16.082Z,98858.25
2023-03-26T08:07:53.797Z,98848.31
2023-03-26T08:12:10.842Z,98858.81
2023-03-26T08:16:26.836Z,98835.31
2023-03-26T08:20:38.441Z,98840.09
2023-03-26T08:25:25.533Z,98853.91
2023-03-26T08:29:45.411Z,98845.94
2023-03-26T08:33:47.776Z,98833.16
2023-03-26T08:37:49.730Z,98836.22
2023-03-26T08:42:17.286Z,98848.69
2023-03-26T08:46:48.985Z,98843.47
2023-03-26T08:51:09.915Z,98840.44
2023-03-26T08:55:40.655Z,98842.00
2023-03-26T09:00:06.020Z,98829.63
2023-03-26T09:04:49.899Z,98820.00
2023-03-26T09:09:18.834Z,98824.22
2023-03-26T09:13:31.612Z,98816.34
2023-03-26T09:18:37.048Z,98814.91
2023-03-26T09:23:07.977Z,98810.56
2023-03-26T09:27:31.336Z,98810.84
2023-03-26T09:32:27.198Z,98797.28
2023-03-26T09:37:08.111Z,98783.31
2023-03-26T09:41:50.931Z,98783.78
2023-03-26T09:46:19.394Z,98775.22
2023-03-26T09:50:32.917Z,98766.50
2023-03-26T09:54:48.455Z,98764.94
2023-03-26T09:59:48.029Z,98748.94
2023-03-26T10:04:47.193Z,98754.16
2023-03-26T10:09:14.158Z,98752.75
2023-03-26T10:13:31.119Z,98743.66
2023-03-26T10:18:27.136Z,98736.38
2023-03-26T10:23:12.065Z,98719.16
2023-03-26T10:27:54.507Z,98722.16
2023-03-26T10:32:30.346Z,98714.06
2023-03-26T10:36:36.975Z,98701.09
2023-03-26T10:41:06.855Z,98695.38
2023-03-26T10:45:20.885Z,98676.31
2023-03-26T10:49:53.669Z,98667.34
2023-03-26T10:54:36.113Z,98656.59
2023-03-26T10:58:48.531Z,98653.59
2023-03-26T11:03:11.872Z,98647.94
2023-03-26T11:07:34.849Z,98645.66
2023-03-26T11:12:02.956Z,98636.97
2023-03-26T11:16:59.559Z,98628.47
2023-03-26T11:21:44.328Z,98629.38
2023-03-26T11:26:09.134Z,98616.22
2023-03-26T11:30:47.530Z,98621.91
2023-03-26T11:35:00.135Z,98622.53
2023-03-26T11:39:04.781Z,98603.69
2023-03-26T11:43:10.764Z,98595.50
2023-03-26T11:47:15.129Z,98603.25
2023-03-26T11:51:33.281Z,98580.75
2023-03-26T11:55:35.629Z,98591.22
2023-03-26T11:59:56.502Z,98588.97
2023-03-26T12:04:13.687Z,98587.00
2023-03-26T12:08:22.620Z,98586.66
2023-03-26T12:12:33.566Z,98582.88
2023-03-26T12:16:36.278Z,98570.81
2023-03-26T12:20:39.024Z,98579.50
2023-03-26T12:24:57.330Z,98569.63
2023-03-26T12:29:14.646Z,98572.22
2023-03-26T12:33:26.226Z,98573.19
2023-03-26T12:37:38.794Z,98573.97
2023-03-26T12:44:44.261Z,98570.38
2023-03-26T12:47:54.819Z,98568.91
2023-03-26T12:50:38.180Z,98563.94
2023-03-26T12:55:18.905Z,98569.16
2023-03-26T12:59:41.890Z,98559.97
2023-03-26T13:04:03.483Z,98565.31
2023-03-26T13:08:39.709Z,98560.06
2023-03-26T13:13:02.364Z,98549.63
2023-03-26T13:17:23.051Z,98545.69
2023-03-26T13:22:08.313Z,98545.69
2023-03-26T13:26:24.726Z,98536.13
2023-03-26T13:31:13.839Z,98536.72
2023-03-26T13:36:23.746Z,98530.50
2023-03-26T13:40:59.298Z,98525.84
2023-03-26T13:45:22.713Z,98517.25
2023-03-26T13:49:44.990Z,98524.53
2023-03-26T13:54:12.371Z,98515.59
2023-03-26T13:58:34.251Z,98522.59
2023-03-26T14:02:40.989Z,98526.91
2023-03-26T14:07:00.399Z,98526.19
2023-03-26T14:11:38.114Z,98537.53
2023-03-26T14:16:04.354Z,98538.34
2023-03-26T14:20:48.888Z,98538.50
2023-03-26T14:25:32.834Z,98549.47
2023-03-26T14:29:56.681Z,98561.66
2023-03-26T14:34:30.373Z,98557.03
2023-03-26T14:39:00.603Z,98562.22
2023-03-26T14:43:46.627Z,98550.56
2023-03-26T14:48:29.466Z,98559.50
2023-03-26T14:52:53.114Z,98551.47
2023-03-26T14:57:49.851Z,98555.31
2023-03-26T15:02:55.980Z,98559.78
2023-03-26T15:07:19.929Z,98540.66
2023-03-26T15:11:52.297Z,98545.19
2023-03-26T15:16:17.860Z,98545.03
2023-03-26T15:20:50.436Z,98536.13
2023-03-26T15:25:48.003Z,98540.53
2023-03-26T15:30:30.572Z,98538.19
2023-03-26T15:35:00.615Z,98546.09
2023-03-26T15:39:21.085Z,98553.41
2023-03-26T15:43:23.143Z,98557.47
2023-03-26T15:47:40.402Z,98553.09
2023-03-26T15:52:19.278Z,98549.91
2023-03-26T15:56:58.709Z,98549.28
2023-03-26T16:01:36.703Z,98545.06
2023-03-26T16:06:15.962Z,98558.66
2023-03-26T16:10:35.042Z,98554.44
2023-03-26T16:14:49.241Z,98554.06
2023-03-26T16:19:00.854Z,98556.97
2023-03-26T16:23:07.219Z,98556.41
2023-03-26T16:27:15.657Z,98563.78
2023-03-26T16:31:37.229Z,98561.28
2023-03-26T16:36:18.587Z,98562.91
2023-03-26T16:40:28.668Z,98554.97
2023-03-26T16:45:08.571Z,98564.81
2023-03-26T16:49:21.742Z,98565.16
2023-03-26T16:53:41.868Z,98574.97
2023-03-26T16:58:42.541Z,98574.44
2023-03-26T22:49:32.982Z,98580.03
2023-03-26T22:53:34.996Z,98575.19
2023-03-26T22:57:37.271Z,98573.22
2023-03-26T23:01:41.386Z,98572.59
2023-03-26T23:05:43.276Z,98588.84
2023-03-26T23:09:45.721Z,98577.81
2023-03-26T23:13:47.974Z,98596.81
2023-03-26T23:17:54.559Z,98607.91
2023-03-26T23:21:57.556Z,98596.34
2023-03-26T23:26:01.946Z,98614.88
2023-03-26T23:30:04.852Z,98609.03
2023-03-26T23:34:06.768Z,98615.53
2023-03-26T23:38:08.712Z,98614.75
2023-03-26T23:42:11.629Z,98620.09
2023-03-26T23:46:15.561Z,98617.63
2023-03-26T23:50:18.099Z,98621.38
2023-03-26T23:54:21.607Z,98626.25
2023-03-26T23:58:24.654Z,98612.22
